Terminal Aerodrome Forecast
Issued by NWS

Home | Current Version | Previous Version | Text Only | Print | Product List | Glossary On
Versions: 1 2 3 4 5 6 7 8 9 10 11 12 13 14 15 16 17 18 19
000
FTUS43 KDLH 142048 AAB
TAFHIB
TAF AMD
KHIB 142048Z 1421/1518 16005KT 1/2SM SN OVC010
     FM142200 17005KT 1SM -SN OVC015
     FM150000 VRB03KT 2SM -SN BKN025 OVC035
     FM150300 36004KT 4SM -SN BKN025 OVC035
     FM150600 34007KT P6SM -SN SCT025 OVC035
     FM151000 34009KT 5SM -SN OVC025
     FM151600 35012G20KT P6SM -SN OVC045=

USA.gov is the U.S. government's official web portal to all federal, state and local government web resources and services.